Flight Track Log - Related Links

Times and Time Zones

All times are in EDT time to prevent confusion due to time zone crossing. See the CPZ5750 flight status page for this flight to view local times or setup timezone preferences in your user account.

Time Position Orientation Groundspeed Altitude Reporting Facility
EDT Latitude Longitude Course Direction KTS MPH feet Rate Location/Type
Sat 04:41:22 PM 44.8667 -93.1167 70° East 203 234 2,800  Level Minneapolis TRACON
Sat 04:42:37 PM 44.9286 -93.0472 38° Northeast 284 327 4,900 2,190 Climbing Minneapolis Center
Sat 04:43:00 PM 45.0366 -92.6303 68° East  Level FlightAware Approximate
Sat 04:43:39 PM 45.0097 -93.0206 13° North 301 346 7,800  Level Minneapolis Center
Sat 04:44:00 PM 45.0787 -92.4831 68° East  Level FlightAware Approximate
Sat 04:44:41 PM 45.0761 -92.9678 29° Northeast 293 337 10,100  Level Minneapolis Center
Sat 04:45:00 PM 45.1127 -92.3326 70° East  Level FlightAware Approximate
Sat 04:45:43 PM 45.1172 -92.8617 61° Northeast 309 356 11,500  Level Minneapolis Center
Sat 04:46:00 PM 45.1504 -92.1821 70° East  Level FlightAware Approximate
Sat 04:46:45 PM 45.1572 -92.7397 65° Northeast 339 390 13,200  Level Minneapolis Center
Sat 04:47:47 PM 45.2056 -92.5892 65° Northeast 349 402 15,200 1,790 Climbing Minneapolis Center
Sat 04:48:49 PM 45.2469 -92.4614 65° Northeast 356 410 16,900 1,452 Climbing Minneapolis Center
Sat 04:49:51 PM 45.2897 -92.3322 65° Northeast 361 415 18,200 1,210 Climbing Minneapolis Center
Sat 04:50:53 PM 45.3031 -92.1903 82° East 367 422 19,400 1,210 Climbing Minneapolis Center
Sat 04:51:55 PM 45.2933 -92.0397 95° East 382 440 20,700 1,113 Climbing Minneapolis Center
Sat 04:52:57 PM 45.2861 -91.8883 94° East 385 443 21,700 1,200 Climbing Minneapolis Center
Sat 04:54:00 PM 45.2756 -91.7033 95° East 392 451 23,200 1,200 Climbing Minneapolis Center
Sat 04:55:02 PM 45.2669 -91.5492 94° East 392 451 24,200 1,355 Climbing Minneapolis Center
Sat 04:56:04 PM 45.2550 -91.3956 96° East 393 452 26,000 1,306 Climbing Minneapolis Center
Sat 04:57:06 PM 45.2453 -91.2442 95° East 383 441 26,900 919 Climbing Minneapolis Center
Sat 04:58:08 PM 45.2364 -91.0947 95° East 382 440 27,900 968 Climbing Minneapolis Center
Sat 04:59:10 PM 45.2256 -90.9381 96° East 393 452 28,900 968 Climbing Minneapolis Center
Sat 05:00:12 PM 45.2169 -90.7828 94° East 397 457 29,900 1,113 Climbing Minneapolis Center
Sat 05:01:14 PM 45.2042 -90.5908 95° East 406 467 31,200 1,016 Climbing Minneapolis Center
Sat 05:02:16 PM 45.1919 -90.4303 96° East 411 473 32,000 677 Climbing Minneapolis Center
Sat 05:03:18 PM 45.1808 -90.2658 95° East 418 481 32,600 484 Climbing Minneapolis Center
Sat 05:04:20 PM 45.1683 -90.0992 96° East 426 490 33,000 194 Climbing Minneapolis Center
Sat 05:05:22 PM 45.1564 -89.9281 96° East 434 499 33,000  Level Minneapolis Center
Sat 05:06:24 PM 45.1403 -89.7192 96° East 445 512 33,000  Level Minneapolis Center
Sat 05:07:26 PM 45.1272 -89.5442 96° East 449 517 33,000  Level Minneapolis Center
Sat 05:08:28 PM 45.1125 -89.3692 97° East 450 518 33,000  Level Minneapolis Center
Sat 05:09:30 PM 45.0994 -89.1950 96° East 449 517 33,000  Level Minneapolis Center
Sat 05:10:32 PM 45.0853 -89.0225 97° East 445 512 33,000  Level Minneapolis Center
Sat 05:11:34 PM 45.0708 -88.8478 97° East 448 516 33,000  Level Minneapolis Center
Sat 05:12:36 PM 45.0533 -88.6428 97° East 441 507 33,000  Level Minneapolis Center
Sat 05:13:38 PM 45.0383 -88.4797 97° East 439 505 33,000  Level Minneapolis Center
Sat 05:14:40 PM 45.0250 -88.3078 96° East 435 501 33,000  Level Minneapolis Center
Sat 05:15:42 PM 45.0089 -88.1403 98° East 437 503 33,000  Level Minneapolis Center
Sat 05:16:44 PM 44.9936 -87.9700 97° East 438 504 33,000  Level Minneapolis Center
Sat 05:17:46 PM 44.9753 -87.7669 97° East 436 502 33,000  Level Minneapolis Center
Sat 05:18:48 PM 44.9592 -87.5989 98° East 433 498 33,000  Level Minneapolis Center
Sat 05:19:50 PM 44.9425 -87.4300 98° East 436 502 33,000  Level Minneapolis Center
Sat 05:20:52 PM 44.9250 -87.2636 98° East 432 497 33,000  Level Minneapolis Center
Sat 05:21:54 PM 44.9097 -87.0961 97° East 431 496 33,000  Level Minneapolis Center
Sat 05:22:56 PM 44.8928 -86.9292 98° East 432 497 33,000  Level Minneapolis Center
Sat 05:23:58 PM 44.8733 -86.7347 98° East 429 494 33,000  Level Minneapolis Center
Sat 05:25:00 PM 44.8556 -86.5667 98° East 432 497 33,000  Level Minneapolis Center
Sat 05:26:02 PM 44.8381 -86.4011 98° East 430 495 33,000  Level Minneapolis Center
Sat 05:27:04 PM 44.8206 -86.2356 98° East 428 493 33,000  Level Minneapolis Center
Sat 05:28:06 PM 44.8028 -86.0675 98° East 431 496 33,000  Level Minneapolis Center
Sat 05:29:08 PM 44.7836 -85.9019 99° East 431 496 33,000  Level Minneapolis Center
Sat 05:30:10 PM 44.7622 -85.7036 99° East 428 493 33,000  Level Minneapolis Center
Sat 05:31:12 PM 44.7453 -85.5522 99° East 429 494 33,000  Level Minneapolis Center
Sat 05:32:14 PM 44.7275 -85.3900 99° East 424 488 33,000  Level Minneapolis Center
Sat 05:33:28 PM 44.7006 -85.1608 99° East 424 488 33,000 44 Level Minneapolis Center
Sat 05:34:30 PM 44.6811 -84.9986 100° East 422 486 33,100 435 Climbing Minneapolis Center
Sat 05:35:32 PM 44.6617 -84.8378 100° East 420 483 33,900 435 Climbing Minneapolis Center
Sat 05:36:34 PM 44.6428 -84.6769 99° East 419 482 34,000 48 Climbing Minneapolis Center
Sat 05:37:36 PM 44.6228 -84.5150 100° East 421 484 34,000  Level Minneapolis Center
Sat 05:38:38 PM 44.6036 -84.3531 99° East 422 486 34,000  Level Minneapolis Center
Sat 05:39:40 PM 44.5786 -84.1606 100° East 419 482 34,000  Level Minneapolis Center
Sat 05:40:42 PM 44.5575 -84.0033 101° East 415 478 34,000 290 Level Minneapolis Center
Sat 05:41:44 PM 44.5386 -83.8456 99° East 413 475 34,600 488 Climbing Minneapolis Center
Sat 05:42:45 PM 44.5181 -83.6881 100° East 412 474 35,000 195 Climbing Minneapolis Center
Sat 05:43:47 PM 44.4969 -83.5303 101° East 413 475 35,000  Level Minneapolis Center
Sat 05:44:49 PM 44.4761 -83.3728 100° East 413 475 35,000  Level Minneapolis Center
Sat 05:45:51 PM 44.4508 -83.1842 101° East 413 475 35,000  Level Minneapolis Center
Sat 05:46:53 PM 44.4292 -83.0272 101° East 412 474 35,000  Level Minneapolis Center
Sat 05:47:55 PM 44.4097 -82.8694 100° East 413 475 35,000  Level Minneapolis Center
Sat 05:48:57 PM 44.3875 -82.7125 101° East 413 475 35,000  Level Minneapolis Center
Sat 05:49:59 PM 44.3661 -82.5556 101° East 413 475 35,000  Level Minneapolis Center
Sat 05:51:00 PM 44.3447 -82.3989 101° East 412 474 35,000  Level Minneapolis Center
Sat 05:52:02 PM 44.3214 -82.2425 102° East 412 474 35,000  Level Minneapolis Center
Sat 05:53:15 PM 44.2667 -82.0000 107° East 410 472 35,000  Level Toronto Center
Sat 05:54:15 PM 44.2667 -81.8667 90° East 410 472 35,000  Level Toronto Center
Sat 05:55:15 PM 44.2333 -81.7000 106° East 420 483 35,000  Level Toronto Center
Sat 05:56:15 PM 44.2000 -81.5333 106° East 420 483 35,000  Level Toronto Center
Sat 05:57:15 PM 44.1833 -81.3833 99° East 420 483 35,000  Level Toronto Center
Sat 05:58:15 PM 44.1500 -81.2167 106° East 430 495 35,000  Level Toronto Center
Sat 05:59:15 PM 44.1333 -81.0500 98° East 440 506 35,000  Level Toronto Center
Sat 06:00:15 PM 44.1000 -80.8833 106° East 440 506 35,000  Level Toronto Center
Sat 06:01:15 PM 44.0833 -80.7167 98° East 440 506 35,000  Level Toronto Center
Sat 06:02:15 PM 44.0667 -80.5667 99° East 440 506 35,000  Level Toronto Center
Sat 06:03:15 PM 44.0333 -80.3667 103° East 440 506 35,000  Level Toronto Center
Sat 06:04:15 PM 44.0000 -80.2167 107° East 440 506 35,000  Level Toronto Center
Sat 06:05:15 PM 43.9833 -80.0500 98° East 450 518 35,000  Level Toronto Center
Sat 06:06:15 PM 43.9500 -79.8833 105° East 450 518 35,000  Level Toronto Center
Sat 06:07:15 PM 43.9167 -79.7000 104° East 450 518 35,000  Level Toronto Center
Sat 06:08:15 PM 43.9000 -79.5333 98° East 460 529 35,000  Level Toronto Center
Sat 06:09:15 PM 43.8667 -79.3500 104° East 460 529 35,000  Level Toronto Center
Sat 06:10:15 PM 43.8333 -79.2000 107° East 460 529 35,000  Level Toronto Center
Sat 06:11:15 PM 43.8000 -79.0167 104° East 460 529 35,000  Level Toronto Center
Sat 06:12:15 PM 43.7667 -78.8500 105° East 460 529 35,000  Level Toronto Center
Sat 06:13:15 PM 43.7500 -78.6667 97° East 460 529 35,000  Level Toronto Center
Sat 06:14:15 PM 43.7167 -78.5000 105° East 460 529 35,000  Level Toronto Center
Sat 06:15:15 PM 43.6667 -78.3500 115° Southeast 460 529 35,000  Level Toronto Center
Sat 06:16:15 PM 43.6333 -78.1667 104° East 460 529 35,000  Level Toronto Center
Sat 06:17:15 PM 43.6167 -78.0000 98° East 460 529 35,000 -171 Level Toronto Center
Sat 06:18:00 PM 43.6019 -77.8828 100° East 451 519 34,700 -743 Descending Cleveland Center
Sat 06:19:00 PM 43.5711 -77.7181 104° East 451 519 33,700 -1,000 Descending Cleveland Center
Sat 06:20:00 PM 43.5378 -77.5533 106° East 446 513 32,700 -1,000 Descending Cleveland Center
Sat 06:21:00 PM 43.5083 -77.3889 104° East 446 513 31,700 -1,050 Descending Cleveland Center
Sat 06:22:00 PM 43.4767 -77.2275 105° East 446 513 30,600 -1,022 Descending Cleveland Center
Sat 06:23:15 PM 43.4392 -77.0503 106° East 440 506 29,400 -711 Descending Boston Center
Sat 06:24:15 PM 43.4097 -76.8967 105° East 428 493 29,000 -200 Descending Boston Center
Sat 06:25:15 PM 43.3786 -76.7314 104° East 428 493 29,000  Level Boston Center
Sat 06:26:15 PM 43.3469 -76.5719 105° East 433 498 29,000  Level Boston Center
Sat 06:27:15 PM 43.3131 -76.4069 106° East 438 504 29,000  Level Boston Center
Sat 06:28:15 PM 43.2792 -76.2422 106° East 443 510 29,000  Level Boston Center
Sat 06:29:15 PM 43.2469 -76.0775 105° East 443 510 29,000  Level Boston Center
Sat 06:30:15 PM 43.2197 -75.9450 106° East 443 510 29,000 -800 Level Boston Center
Sat 06:31:15 PM 43.1775 -75.7544 107° East 443 510 27,400 -2,000 Descending Boston Center
Sat 06:32:15 PM 43.1425 -75.5989 107° East 438 504 25,000 -2,350 Descending Boston Center
Sat 06:33:15 PM 43.1111 -75.4494 106° East 421 484 22,700 -2,250 Descending Boston Center
Sat 06:34:15 PM 43.0814 -75.3028 105° East 410 472 20,500 -2,150 Descending Boston Center
Sat 06:35:15 PM 43.0514 -75.1650 107° East 398 458 18,400 -2,100 Descending Boston Center
Sat 06:36:15 PM 43.0233 -75.0303 106° East 379 436 16,300 -2,050 Descending Boston Center
Sat 06:37:15 PM 42.9950 -74.9014 107° East 367 422 14,300 -2,106 Descending Boston Center
Sat 06:37:49 PM 42.9778 -74.8239 107° East 339 390 13,000 -1,979 Descending Boston Center
Sat 06:38:49 PM 42.9531 -74.7011 105° East 325 374 11,200 -992 Descending Boston Center
Sat 06:39:50 PM 42.9261 -74.5894 108° East 310 357 11,000 -99 Descending Boston Center
Sat 06:40:50 PM 42.8992 -74.4781 108° East 309 356 11,000 -545 Level Boston Center
Sat 06:41:51 PM 42.8444 -74.3883 130° Southeast 277 319 9,900 -1,033 Descending Boston Center
Sat 06:42:52 PM 42.7933 -74.3161 134° Southeast 256 295 8,900 -984 Descending Boston Center
Sat 06:43:53 PM 42.7531 -74.2414 126° Southeast 242 278 7,900 -1,091 Descending Boston Center
Sat 06:44:53 PM 42.7122 -74.1750 130° Southeast 238 274 6,700 -1,339 Descending Boston Center
Sat 06:45:54 PM 42.6864 -74.0867 112° Southeast 246 283 5,200 -1,339 Descending Boston Center
Sat 06:46:54 PM 42.6608 -73.9958 111° Southeast 250 288 4,000 -595 Descending Boston Center
Sat 06:47:55 PM 42.6242 -73.9272 126° Southeast 222 255 4,000  Level Boston Center

Login

Don't have an account? Register now (free) for customized features, flight alerts, and more!